sensor_id;sensor_type;location;lat;lon;timestamp;temperature;humidity
61400;DHT22;47269;48.182;-1.946;2023-07-28T06:02:02;19.40;99.90
61400;DHT22;47269;48.182;-1.946;2023-07-28T06:04:28;19.10;99.90
61400;DHT22;47269;48.182;-1.946;2023-07-28T06:06:53;19.30;99.90
61400;DHT22;47269;48.182;-1.946;2023-07-28T06:09:19;19.40;99.90
61400;DHT22;47269;48.182;-1.946;2023-07-28T06:11:45;19.30;99.90
61400;DHT22;47269;48.182;-1.946;2023-07-28T06:14:10;19.40;99.90
61400;DHT22;47269;48.182;-1.946;2023-07-28T06:16:36;19.40;99.90
61400;DHT22;47269;48.182;-1.946;2023-07-28T06:19:02;19.60;99.90
61400;DHT22;47269;48.182;-1.946;2023-07-28T06:21:29;19.50;99.90
61400;DHT22;47269;48.182;-1.946;2023-07-28T06:23:55;19.80;99.90
61400;DHT22;47269;48.182;-1.946;2023-07-28T06:26:21;20.00;99.90
61400;DHT22;47269;48.182;-1.946;2023-07-28T06:28:46;20.00;99.90
61400;DHT22;47269;48.182;-1.946;2023-07-28T06:31:12;19.60;99.90
61400;DHT22;47269;48.182;-1.946;2023-07-28T06:33:38;19.70;99.90
61400;DHT22;47269;48.182;-1.946;2023-07-28T06:36:04;19.60;99.90
61400;DHT22;47269;48.182;-1.946;2023-07-28T06:38:30;19.40;99.90
61400;DHT22;47269;48.182;-1.946;2023-07-28T06:40:55;19.80;99.90
61400;DHT22;47269;48.182;-1.946;2023-07-28T06:43:21;19.60;99.90
61400;DHT22;47269;48.182;-1.946;2023-07-28T06:45:50;19.70;99.90
61400;DHT22;47269;48.182;-1.946;2023-07-28T06:48:16;19.60;99.90
61400;DHT22;47269;48.182;-1.946;2023-07-28T06:50:42;19.80;99.90
61400;DHT22;47269;48.182;-1.946;2023-07-28T06:53:08;19.80;99.90
61400;DHT22;47269;48.182;-1.946;2023-07-28T06:55:33;19.80;99.90
61400;DHT22;47269;48.182;-1.946;2023-07-28T06:57:59;19.80;99.90
61400;DHT22;47269;48.182;-1.946;2023-07-28T07:00:25;19.80;99.90
61400;DHT22;47269;48.182;-1.946;2023-07-28T07:02:51;20.00;99.90
61400;DHT22;47269;48.182;-1.946;2023-07-28T07:05:16;20.00;99.90
61400;DHT22;47269;48.182;-1.946;2023-07-28T07:07:42;20.30;99.90
61400;DHT22;47269;48.182;-1.946;2023-07-28T07:10:08;20.50;99.90
61400;DHT22;47269;48.182;-1.946;2023-07-28T07:12:34;20.30;99.90
61400;DHT22;47269;48.182;-1.946;2023-07-28T07:15:00;20.30;99.90
61400;DHT22;47269;48.182;-1.946;2023-07-28T07:17:28;20.20;99.90
61400;DHT22;47269;48.182;-1.946;2023-07-28T07:19:53;20.10;99.90
61400;DHT22;47269;48.182;-1.946;2023-07-28T07:22:19;19.90;99.90
61400;DHT22;47269;48.182;-1.946;2023-07-28T07:24:45;20.10;99.90
61400;DHT22;47269;48.182;-1.946;2023-07-28T07:27:11;20.20;99.90
61400;DHT22;47269;48.182;-1.946;2023-07-28T07:29:38;20.30;99.90
61400;DHT22;47269;48.182;-1.946;2023-07-28T07:32:05;20.30;99.90
61400;DHT22;47269;48.182;-1.946;2023-07-28T07:34:32;20.30;99.90
61400;DHT22;47269;48.182;-1.946;2023-07-28T07:36:58;20.50;99.90
61400;DHT22;47269;48.182;-1.946;2023-07-28T07:39:24;20.40;99.90
61400;DHT22;47269;48.182;-1.946;2023-07-28T07:41:49;20.40;99.90
61400;DHT22;47269;48.182;-1.946;2023-07-28T07:44:15;20.50;99.90
61400;DHT22;47269;48.182;-1.946;2023-07-28T07:46:41;20.60;99.90
61400;DHT22;47269;48.182;-1.946;2023-07-28T07:49:07;20.80;99.90
61400;DHT22;47269;48.182;-1.946;2023-07-28T07:51:34;20.90;99.90
61400;DHT22;47269;48.182;-1.946;2023-07-28T07:54:00;21.20;99.90
61400;DHT22;47269;48.182;-1.946;2023-07-28T07:56:29;21.10;99.90
61400;DHT22;47269;48.182;-1.946;2023-07-28T07:58:54;21.10;99.90
61400;DHT22;47269;48.182;-1.946;2023-07-28T08:01:20;21.60;99.90
61400;DHT22;47269;48.182;-1.946;2023-07-28T08:03:46;21.60;99.90
61400;DHT22;47269;48.182;-1.946;2023-07-28T08:06:11;22.40;99.90
61400;DHT22;47269;48.182;-1.946;2023-07-28T08:08:38;23.00;99.90
61400;DHT22;47269;48.182;-1.946;2023-07-28T08:11:04;23.50;99.90
61400;DHT22;47269;48.182;-1.946;2023-07-28T08:13:29;22.90;99.90
61400;DHT22;47269;48.182;-1.946;2023-07-28T08:15:55;23.30;99.90
61400;DHT22;47269;48.182;-1.946;2023-07-28T08:18:21;22.70;99.90
61400;DHT22;47269;48.182;-1.946;2023-07-28T08:20:46;21.90;99.90
61400;DHT22;47269;48.182;-1.946;2023-07-28T08:23:12;22.10;99.90
61400;DHT22;47269;48.182;-1.946;2023-07-28T08:25:38;23.50;99.90
61400;DHT22;47269;48.182;-1.946;2023-07-28T08:28:04;23.40;99.90
61400;DHT22;47269;48.182;-1.946;2023-07-28T08:30:29;22.40;99.90
61400;DHT22;47269;48.182;-1.946;2023-07-28T08:32:57;23.60;99.90
61400;DHT22;47269;48.182;-1.946;2023-07-28T08:35:23;23.70;99.90
61400;DHT22;47269;48.182;-1.946;2023-07-28T08:37:48;22.30;99.90
61400;DHT22;47269;48.182;-1.946;2023-07-28T08:40:14;22.10;99.90
61400;DHT22;47269;48.182;-1.946;2023-07-28T08:42:40;22.00;99.90
61400;DHT22;47269;48.182;-1.946;2023-07-28T08:45:07;22.40;99.90
61400;DHT22;47269;48.182;-1.946;2023-07-28T08:47:36;22.40;99.90
61400;DHT22;47269;48.182;-1.946;2023-07-28T08:50:03;22.80;99.90
61400;DHT22;47269;48.182;-1.946;2023-07-28T08:52:29;22.40;99.90
61400;DHT22;47269;48.182;-1.946;2023-07-28T08:54:54;23.50;99.90
61400;DHT22;47269;48.182;-1.946;2023-07-28T08:57:20;24.60;99.90
61400;DHT22;47269;48.182;-1.946;2023-07-28T08:59:46;24.00;99.90
61400;DHT22;47269;48.182;-1.946;2023-07-28T09:02:17;23.70;99.90
61400;DHT22;47269;48.182;-1.946;2023-07-28T09:04:43;23.00;99.90
61400;DHT22;47269;48.182;-1.946;2023-07-28T09:07:09;22.50;99.90
61400;DHT22;47269;48.182;-1.946;2023-07-28T09:09:36;22.20;99.90
61400;DHT22;47269;48.182;-1.946;2023-07-28T09:12:04;22.30;99.90
61400;DHT22;47269;48.182;-1.946;2023-07-28T09:14:30;22.50;99.90
61400;DHT22;47269;48.182;-1.946;2023-07-28T09:17:14;23.10;99.90
61400;DHT22;47269;48.182;-1.946;2023-07-28T09:19:50;23.60;99.90
61400;DHT22;47269;48.182;-1.946;2023-07-28T09:22:17;23.00;99.90
61400;DHT22;47269;48.182;-1.946;2023-07-28T09:24:43;22.70;99.90
61400;DHT22;47269;48.182;-1.946;2023-07-28T09:27:24;22.50;99.90
61400;DHT22;47269;48.182;-1.946;2023-07-28T09:29:51;22.40;99.90
61400;DHT22;47269;48.182;-1.946;2023-07-28T09:32:35;22.70;99.90
61400;DHT22;47269;48.182;-1.946;2023-07-28T09:35:10;22.20;99.90
61400;DHT22;47269;48.182;-1.946;2023-07-28T09:37:41;22.30;99.90
61400;DHT22;47269;48.182;-1.946;2023-07-28T09:40:09;22.50;99.90
61400;DHT22;47269;48.182;-1.946;2023-07-28T09:42:39;22.30;99.90
61400;DHT22;47269;48.182;-1.946;2023-07-28T09:45:05;22.90;99.90
61400;DHT22;47269;48.182;-1.946;2023-07-28T09:47:34;23.80;99.90
61400;DHT22;47269;48.182;-1.946;2023-07-28T09:50:03;23.50;99.90
61400;DHT22;47269;48.182;-1.946;2023-07-28T09:52:34;23.30;99.90
61400;DHT22;47269;48.182;-1.946;2023-07-28T09:55:07;23.00;99.90
61400;DHT22;47269;48.182;-1.946;2023-07-28T09:57:40;22.40;99.90
61400;DHT22;47269;48.182;-1.946;2023-07-28T10:00:11;22.20;99.90
61400;DHT22;47269;48.182;-1.946;2023-07-28T10:02:39;22.10;99.90
61400;DHT22;47269;48.182;-1.946;2023-07-28T10:05:08;22.00;99.90
61400;DHT22;47269;48.182;-1.946;2023-07-28T10:07:37;22.00;99.90
61400;DHT22;47269;48.182;-1.946;2023-07-28T10:10:04;22.20;99.90
61400;DHT22;47269;48.182;-1.946;2023-07-28T10:12:50;22.20;99.90
61400;DHT22;47269;48.182;-1.946;2023-07-28T10:15:18;22.40;99.90
61400;DHT22;47269;48.182;-1.946;2023-07-28T10:17:50;22.30;99.90
61400;DHT22;47269;48.182;-1.946;2023-07-28T10:20:38;22.00;99.90
61400;DHT22;47269;48.182;-1.946;2023-07-28T10:23:24;21.90;99.90
61400;DHT22;47269;48.182;-1.946;2023-07-28T10:26:00;22.00;99.90
61400;DHT22;47269;48.182;-1.946;2023-07-28T10:28:34;22.20;99.90
61400;DHT22;47269;48.182;-1.946;2023-07-28T10:31:07;22.20;99.90
61400;DHT22;47269;48.182;-1.946;2023-07-28T10:33:35;22.30;99.90
61400;DHT22;47269;48.182;-1.946;2023-07-28T10:41:30;22.50;99.90
61400;DHT22;47269;48.182;-1.946;2023-07-28T10:44:00;22.60;99.90
61400;DHT22;47269;48.182;-1.946;2023-07-28T10:46:26;22.60;99.90
61400;DHT22;47269;48.182;-1.946;2023-07-28T10:48:52;22.30;99.90
61400;DHT22;47269;48.182;-1.946;2023-07-28T10:51:25;21.80;99.90
61400;DHT22;47269;48.182;-1.946;2023-07-28T10:53:57;21.80;99.90
61400;DHT22;47269;48.182;-1.946;2023-07-28T10:56:24;22.10;99.90
61400;DHT22;47269;48.182;-1.946;2023-07-28T10:59:00;22.40;99.90
61400;DHT22;47269;48.182;-1.946;2023-07-28T11:01:33;23.40;99.90
61400;DHT22;47269;48.182;-1.946;2023-07-28T11:04:11;23.80;99.90
61400;DHT22;47269;48.182;-1.946;2023-07-28T11:06:47;23.90;99.90
61400;DHT22;47269;48.182;-1.946;2023-07-28T11:09:15;24.50;99.90
61400;DHT22;47269;48.182;-1.946;2023-07-28T11:11:42;24.40;99.90
61400;DHT22;47269;48.182;-1.946;2023-07-28T11:14:09;24.70;99.90
61400;DHT22;47269;48.182;-1.946;2023-07-28T11:16:41;24.80;99.90
61400;DHT22;47269;48.182;-1.946;2023-07-28T11:19:09;25.30;99.90
61400;DHT22;47269;48.182;-1.946;2023-07-28T11:21:39;25.00;99.90
61400;DHT22;47269;48.182;-1.946;2023-07-28T11:24:06;24.50;99.90
61400;DHT22;47269;48.182;-1.946;2023-07-28T11:26:35;24.10;99.90
61400;DHT22;47269;48.182;-1.946;2023-07-28T11:29:01;24.70;99.90
61400;DHT22;47269;48.182;-1.946;2023-07-28T11:31:27;24.90;99.90
61400;DHT22;47269;48.182;-1.946;2023-07-28T11:33:53;25.70;99.90
61400;DHT22;47269;48.182;-1.946;2023-07-28T11:36:26;25.60;99.90
61400;DHT22;47269;48.182;-1.946;2023-07-28T11:38:53;25.70;99.90
61400;DHT22;47269;48.182;-1.946;2023-07-28T11:41:20;25.00;99.90
61400;DHT22;47269;48.182;-1.946;2023-07-28T11:43:50;25.30;99.90
61400;DHT22;47269;48.182;-1.946;2023-07-28T11:49:16;25.10;99.90
61400;DHT22;47269;48.182;-1.946;2023-07-28T11:51:45;25.10;99.90
61400;DHT22;47269;48.182;-1.946;2023-07-28T11:54:20;25.30;99.90
61400;DHT22;47269;48.182;-1.946;2023-07-28T11:57:01;26.50;99.90
61400;DHT22;47269;48.182;-1.946;2023-07-28T11:59:28;25.90;99.90
61400;DHT22;47269;48.182;-1.946;2023-07-28T12:01:59;25.70;99.90
61400;DHT22;47269;48.182;-1.946;2023-07-28T12:04:27;25.30;99.90
61400;DHT22;47269;48.182;-1.946;2023-07-28T12:12:11;25.60;99.90
61400;DHT22;47269;48.182;-1.946;2023-07-28T12:14:37;26.20;99.90
61400;DHT22;47269;48.182;-1.946;2023-07-28T12:17:11;26.30;99.90
61400;DHT22;47269;48.182;-1.946;2023-07-28T12:20:03;25.80;99.90
61400;DHT22;47269;48.182;-1.946;2023-07-28T12:22:27;25.60;99.90
61400;DHT22;47269;48.182;-1.946;2023-07-28T12:24:54;25.60;99.90
61400;DHT22;47269;48.182;-1.946;2023-07-28T12:27:20;25.60;99.90
61400;DHT22;47269;48.182;-1.946;2023-07-28T12:29:49;25.80;99.90
61400;DHT22;47269;48.182;-1.946;2023-07-28T12:32:15;25.10;99.90
61400;DHT22;47269;48.182;-1.946;2023-07-28T12:34:40;24.70;99.90
61400;DHT22;47269;48.182;-1.946;2023-07-28T12:37:07;24.90;99.90
61400;DHT22;47269;48.182;-1.946;2023-07-28T12:39:35;25.90;99.90
61400;DHT22;47269;48.182;-1.946;2023-07-28T12:42:01;26.10;99.90
61400;DHT22;47269;48.182;-1.946;2023-07-28T12:44:27;25.90;99.90
61400;DHT22;47269;48.182;-1.946;2023-07-28T12:46:52;26.10;99.90
61400;DHT22;47269;48.182;-1.946;2023-07-28T12:49:18;25.90;99.90
61400;DHT22;47269;48.182;-1.946;2023-07-28T12:51:45;26.10;99.90
61400;DHT22;47269;48.182;-1.946;2023-07-28T12:54:10;25.60;99.90
61400;DHT22;47269;48.182;-1.946;2023-07-28T12:56:36;25.50;99.90
61400;DHT22;47269;48.182;-1.946;2023-07-28T12:59:02;25.20;99.90
61400;DHT22;47269;48.182;-1.946;2023-07-28T13:01:27;25.30;99.90
61400;DHT22;47269;48.182;-1.946;2023-07-28T13:03:53;26.20;99.90
61400;DHT22;47269;48.182;-1.946;2023-07-28T13:06:19;26.20;99.90
61400;DHT22;47269;48.182;-1.946;2023-07-28T13:08:45;25.90;99.90
61400;DHT22;47269;48.182;-1.946;2023-07-28T13:11:11;25.40;99.90
61400;DHT22;47269;48.182;-1.946;2023-07-28T13:13:40;25.80;99.90
61400;DHT22;47269;48.182;-1.946;2023-07-28T13:16:06;26.10;99.90
61400;DHT22;47269;48.182;-1.946;2023-07-28T13:18:32;26.60;99.90
61400;DHT22;47269;48.182;-1.946;2023-07-28T13:20:58;26.80;99.90
61400;DHT22;47269;48.182;-1.946;2023-07-28T13:23:24;27.00;99.90
61400;DHT22;47269;48.182;-1.946;2023-07-28T13:25:50;26.60;99.90
61400;DHT22;47269;48.182;-1.946;2023-07-28T13:28:16;26.10;99.90
61400;DHT22;47269;48.182;-1.946;2023-07-28T13:30:41;25.80;99.90
61400;DHT22;47269;48.182;-1.946;2023-07-28T13:33:07;25.90;99.90
61400;DHT22;47269;48.182;-1.946;2023-07-28T13:35:33;26.50;99.90
61400;DHT22;47269;48.182;-1.946;2023-07-28T13:37:58;26.90;99.90
61400;DHT22;47269;48.182;-1.946;2023-07-28T13:40:24;26.70;99.90
61400;DHT22;47269;48.182;-1.946;2023-07-28T13:42:50;27.20;99.90
61400;DHT22;47269;48.182;-1.946;2023-07-28T13:45:15;27.10;99.90
61400;DHT22;47269;48.182;-1.946;2023-07-28T13:47:41;26.80;99.90
61400;DHT22;47269;48.182;-1.946;2023-07-28T13:50:07;26.10;99.90
61400;DHT22;47269;48.182;-1.946;2023-07-28T13:52:33;26.30;99.90
61400;DHT22;47269;48.182;-1.946;2023-07-28T13:54:58;26.40;99.90
61400;DHT22;47269;48.182;-1.946;2023-07-28T13:57:24;26.00;99.90
61400;DHT22;47269;48.182;-1.946;2023-07-28T13:59:50;26.10;99.90
61400;DHT22;47269;48.182;-1.946;2023-07-28T14:02:18;26.00;99.90
61400;DHT22;47269;48.182;-1.946;2023-07-28T14:04:44;26.20;99.90
61400;DHT22;47269;48.182;-1.946;2023-07-28T14:07:10;25.80;99.90
61400;DHT22;47269;48.182;-1.946;2023-07-28T14:09:36;26.20;99.90
61400;DHT22;47269;48.182;-1.946;2023-07-28T14:12:03;26.00;99.90
61400;DHT22;47269;48.182;-1.946;2023-07-28T14:14:29;26.00;99.90
61400;DHT22;47269;48.182;-1.946;2023-07-28T14:16:55;26.20;99.90
61400;DHT22;47269;48.182;-1.946;2023-07-28T14:19:20;26.90;99.90
61400;DHT22;47269;48.182;-1.946;2023-07-28T14:21:46;26.60;99.90
61400;DHT22;47269;48.182;-1.946;2023-07-28T14:24:12;26.50;99.90
61400;DHT22;47269;48.182;-1.946;2023-07-28T14:26:38;26.80;99.90
61400;DHT22;47269;48.182;-1.946;2023-07-28T14:29:04;26.60;99.90
61400;DHT22;47269;48.182;-1.946;2023-07-28T14:31:29;26.00;99.90
61400;DHT22;47269;48.182;-1.946;2023-07-28T14:33:55;25.70;99.90
61400;DHT22;47269;48.182;-1.946;2023-07-28T14:36:21;25.90;99.90
61400;DHT22;47269;48.182;-1.946;2023-07-28T14:38:46;26.40;99.90
61400;DHT22;47269;48.182;-1.946;2023-07-28T14:41:12;25.60;99.90
61400;DHT22;47269;48.182;-1.946;2023-07-28T14:43:38;25.90;99.90
61400;DHT22;47269;48.182;-1.946;2023-07-28T14:46:04;25.90;99.90
61400;DHT22;47269;48.182;-1.946;2023-07-28T14:48:29;26.30;99.90
61400;DHT22;47269;48.182;-1.946;2023-07-28T14:50:55;26.40;99.90
61400;DHT22;47269;48.182;-1.946;2023-07-28T14:53:32;26.70;99.90
61400;DHT22;47269;48.182;-1.946;2023-07-28T14:55:58;26.60;99.90
61400;DHT22;47269;48.182;-1.946;2023-07-28T14:58:24;26.40;99.90
61400;DHT22;47269;48.182;-1.946;2023-07-28T15:00:50;26.00;99.90
61400;DHT22;47269;48.182;-1.946;2023-07-28T15:03:16;25.60;99.90
61400;DHT22;47269;48.182;-1.946;2023-07-28T15:05:42;25.30;99.90
61400;DHT22;47269;48.182;-1.946;2023-07-28T15:08:08;25.50;99.90
61400;DHT22;47269;48.182;-1.946;2023-07-28T15:10:34;25.60;99.90
61400;DHT22;47269;48.182;-1.946;2023-07-28T15:12:59;26.30;99.90
61400;DHT22;47269;48.182;-1.946;2023-07-28T15:15:25;26.60;99.90
61400;DHT22;47269;48.182;-1.946;2023-07-28T15:17:51;26.90;99.90
61400;DHT22;47269;48.182;-1.946;2023-07-28T15:20:16;26.70;99.90
61400;DHT22;47269;48.182;-1.946;2023-07-28T15:22:46;26.60;99.90
61400;DHT22;47269;48.182;-1.946;2023-07-28T15:25:12;25.70;99.90
61400;DHT22;47269;48.182;-1.946;2023-07-28T15:27:40;25.80;99.90
61400;DHT22;47269;48.182;-1.946;2023-07-28T15:30:07;26.10;99.90
61400;DHT22;47269;48.182;-1.946;2023-07-28T15:32:33;26.30;99.90
61400;DHT22;47269;48.182;-1.946;2023-07-28T15:34:58;26.10;99.90
61400;DHT22;47269;48.182;-1.946;2023-07-28T15:37:24;26.30;99.90
61400;DHT22;47269;48.182;-1.946;2023-07-28T15:39:50;26.10;99.90
61400;DHT22;47269;48.182;-1.946;2023-07-28T15:42:15;26.10;99.90
61400;DHT22;47269;48.182;-1.946;2023-07-28T15:44:43;26.00;99.90
61400;DHT22;47269;48.182;-1.946;2023-07-28T15:47:09;25.90;99.90
61400;DHT22;47269;48.182;-1.946;2023-07-28T15:49:35;25.60;99.90
61400;DHT22;47269;48.182;-1.946;2023-07-28T15:52:00;25.50;99.90
61400;DHT22;47269;48.182;-1.946;2023-07-28T15:54:27;25.60;99.90
61400;DHT22;47269;48.182;-1.946;2023-07-28T15:56:53;25.70;99.90
61400;DHT22;47269;48.182;-1.946;2023-07-28T15:59:18;25.60;99.90
61400;DHT22;47269;48.182;-1.946;2023-07-28T16:01:44;26.00;99.90
61400;DHT22;47269;48.182;-1.946;2023-07-28T16:04:10;26.10;99.90
61400;DHT22;47269;48.182;-1.946;2023-07-28T16:06:35;26.10;99.90
61400;DHT22;47269;48.182;-1.946;2023-07-28T16:09:01;26.00;99.90
61400;DHT22;47269;48.182;-1.946;2023-07-28T16:11:29;25.80;99.90
61400;DHT22;47269;48.182;-1.946;2023-07-28T16:13:55;25.80;99.90
61400;DHT22;47269;48.182;-1.946;2023-07-28T16:16:21;25.90;99.90
61400;DHT22;47269;48.182;-1.946;2023-07-28T16:18:48;25.80;99.90
61400;DHT22;47269;48.182;-1.946;2023-07-28T16:21:14;25.80;99.90
61400;DHT22;47269;48.182;-1.946;2023-07-28T16:23:39;25.70;99.90
61400;DHT22;47269;48.182;-1.946;2023-07-28T16:26:05;25.60;99.90
61400;DHT22;47269;48.182;-1.946;2023-07-28T16:28:31;25.30;99.90
61400;DHT22;47269;48.182;-1.946;2023-07-28T16:30:56;25.30;99.90
61400;DHT22;47269;48.182;-1.946;2023-07-28T16:33:22;25.60;99.90
61400;DHT22;47269;48.182;-1.946;2023-07-28T16:35:48;25.30;99.90
61400;DHT22;47269;48.182;-1.946;2023-07-28T16:38:14;25.00;99.90
61400;DHT22;47269;48.182;-1.946;2023-07-28T16:40:39;25.30;99.90
61400;DHT22;47269;48.182;-1.946;2023-07-28T16:43:08;25.40;99.90
61400;DHT22;47269;48.182;-1.946;2023-07-28T16:45:34;25.20;99.90
61400;DHT22;47269;48.182;-1.946;2023-07-28T16:47:59;25.10;99.90
61400;DHT22;47269;48.182;-1.946;2023-07-28T16:50:25;24.80;99.90
61400;DHT22;47269;48.182;-1.946;2023-07-28T16:52:51;24.60;99.90
61400;DHT22;47269;48.182;-1.946;2023-07-28T16:55:16;24.60;99.90
61400;DHT22;47269;48.182;-1.946;2023-07-28T16:57:42;24.60;99.90
61400;DHT22;47269;48.182;-1.946;2023-07-28T17:00:08;24.60;99.90
61400;DHT22;47269;48.182;-1.946;2023-07-28T17:02:33;24.20;99.90
61400;DHT22;47269;48.182;-1.946;2023-07-28T17:04:59;24.20;99.90
61400;DHT22;47269;48.182;-1.946;2023-07-28T17:07:25;24.30;99.90
61400;DHT22;47269;48.182;-1.946;2023-07-28T17:09:50;24.20;99.90
61400;DHT22;47269;48.182;-1.946;2023-07-28T17:12:16;23.90;99.90
61400;DHT22;47269;48.182;-1.946;2023-07-28T17:14:42;23.60;99.90
61400;DHT22;47269;48.182;-1.946;2023-07-28T17:17:07;23.40;99.90
61400;DHT22;47269;48.182;-1.946;2023-07-28T17:19:33;23.40;99.90
61400;DHT22;47269;48.182;-1.946;2023-07-28T17:21:59;23.40;99.90
61400;DHT22;47269;48.182;-1.946;2023-07-28T17:24:24;23.40;99.90
61400;DHT22;47269;48.182;-1.946;2023-07-28T17:26:50;23.10;99.90
61400;DHT22;47269;48.182;-1.946;2023-07-28T17:29:16;23.10;99.90
61400;DHT22;47269;48.182;-1.946;2023-07-28T17:31:42;23.10;99.90
61400;DHT22;47269;48.182;-1.946;2023-07-28T17:34:08;23.20;99.90
61400;DHT22;47269;48.182;-1.946;2023-07-28T17:36:33;23.00;99.90
61400;DHT22;47269;48.182;-1.946;2023-07-28T17:38:59;22.70;99.90
61400;DHT22;47269;48.182;-1.946;2023-07-28T17:41:25;22.60;99.90
61400;DHT22;47269;48.182;-1.946;2023-07-28T17:43:50;22.40;99.90
61400;DHT22;47269;48.182;-1.946;2023-07-28T17:46:16;22.40;99.90
61400;DHT22;47269;48.182;-1.946;2023-07-28T17:48:42;22.30;99.90
61400;DHT22;47269;48.182;-1.946;2023-07-28T17:51:08;22.10;99.90
61400;DHT22;47269;48.182;-1.946;2023-07-28T17:53:35;22.00;99.90
61400;DHT22;47269;48.182;-1.946;2023-07-28T17:56:01;22.20;99.90
61400;DHT22;47269;48.182;-1.946;2023-07-28T17:58:26;22.20;99.90
61400;DHT22;47269;48.182;-1.946;2023-07-28T18:00:52;21.90;99.90
61400;DHT22;47269;48.182;-1.946;2023-07-28T18:03:18;21.70;99.90
61400;DHT22;47269;48.182;-1.946;2023-07-28T18:05:43;21.70;99.90
61400;DHT22;47269;48.182;-1.946;2023-07-28T18:08:09;21.70;99.90
61400;DHT22;47269;48.182;-1.946;2023-07-28T18:10:39;21.90;99.90
61400;DHT22;47269;48.182;-1.946;2023-07-28T18:13:05;21.90;99.90
61400;DHT22;47269;48.182;-1.946;2023-07-28T18:15:30;21.90;99.90
61400;DHT22;47269;48.182;-1.946;2023-07-28T18:17:56;21.80;99.90
61400;DHT22;47269;48.182;-1.946;2023-07-28T18:20:22;22.00;99.90
61400;DHT22;47269;48.182;-1.946;2023-07-28T18:22:50;21.90;99.90
61400;DHT22;47269;48.182;-1.946;2023-07-28T18:25:16;21.60;99.90
61400;DHT22;47269;48.182;-1.946;2023-07-28T18:27:41;21.50;99.90
61400;DHT22;47269;48.182;-1.946;2023-07-28T18:30:08;21.50;99.90
61400;DHT22;47269;48.182;-1.946;2023-07-28T18:32:34;21.50;99.90
61400;DHT22;47269;48.182;-1.946;2023-07-28T18:35:00;21.50;99.90
61400;DHT22;47269;48.182;-1.946;2023-07-28T18:37:26;21.50;99.90
61400;DHT22;47269;48.182;-1.946;2023-07-28T18:39:52;21.40;99.90
61400;DHT22;47269;48.182;-1.946;2023-07-28T18:42:18;21.30;99.90
61400;DHT22;47269;48.182;-1.946;2023-07-28T18:44:43;21.30;99.90
61400;DHT22;47269;48.182;-1.946;2023-07-28T18:47:09;21.30;99.90
61400;DHT22;47269;48.182;-1.946;2023-07-28T18:49:35;21.00;99.90
61400;DHT22;47269;48.182;-1.946;2023-07-28T18:52:00;21.10;99.90
61400;DHT22;47269;48.182;-1.946;2023-07-28T18:54:26;21.10;99.90
61400;DHT22;47269;48.182;-1.946;2023-07-28T18:56:51;21.10;99.90
61400;DHT22;47269;48.182;-1.946;2023-07-28T18:59:19;21.10;99.90
61400;DHT22;47269;48.182;-1.946;2023-07-28T19:01:44;21.00;99.90
61400;DHT22;47269;48.182;-1.946;2023-07-28T19:04:10;20.90;99.90
61400;DHT22;47269;48.182;-1.946;2023-07-28T19:06:36;20.90;99.90
61400;DHT22;47269;48.182;-1.946;2023-07-28T19:09:03;21.00;99.90
61400;DHT22;47269;48.182;-1.946;2023-07-28T19:11:28;20.90;99.90
61400;DHT22;47269;48.182;-1.946;2023-07-28T19:13:54;20.80;99.90
61400;DHT22;47269;48.182;-1.946;2023-07-28T19:16:20;20.70;99.90
61400;DHT22;47269;48.182;-1.946;2023-07-28T19:18:46;20.70;99.90
61400;DHT22;47269;48.182;-1.946;2023-07-28T19:21:12;20.70;99.90
61400;DHT22;47269;48.182;-1.946;2023-07-28T19:23:40;20.70;99.90
61400;DHT22;47269;48.182;-1.946;2023-07-28T19:26:10;20.70;99.90
61400;DHT22;47269;48.182;-1.946;2023-07-28T19:28:36;20.60;99.90
61400;DHT22;47269;48.182;-1.946;2023-07-28T19:31:01;20.40;99.90
61400;DHT22;47269;48.182;-1.946;2023-07-28T19:33:31;20.40;99.90
61400;DHT22;47269;48.182;-1.946;2023-07-28T19:35:57;20.40;99.90
61400;DHT22;47269;48.182;-1.946;2023-07-28T19:38:23;20.30;99.90
61400;DHT22;47269;48.182;-1.946;2023-07-28T19:40:48;20.20;99.90
61400;DHT22;47269;48.182;-1.946;2023-07-28T19:43:14;20.10;99.90
61400;DHT22;47269;48.182;-1.946;2023-07-28T19:45:40;20.00;99.90
61400;DHT22;47269;48.182;-1.946;2023-07-28T19:48:06;19.90;99.90
61400;DHT22;47269;48.182;-1.946;2023-07-28T19:50:33;19.80;99.90
61400;DHT22;47269;48.182;-1.946;2023-07-28T19:52:58;19.80;99.90
61400;DHT22;47269;48.182;-1.946;2023-07-28T19:55:24;19.70;99.90
61400;DHT22;47269;48.182;-1.946;2023-07-28T19:57:50;19.70;99.90
61400;DHT22;47269;48.182;-1.946;2023-07-28T20:00:16;19.70;99.90
61400;DHT22;47269;48.182;-1.946;2023-07-28T20:02:42;19.60;99.90
61400;DHT22;47269;48.182;-1.946;2023-07-28T20:05:08;19.60;99.90
61400;DHT22;47269;48.182;-1.946;2023-07-28T20:07:34;19.50;99.90
61400;DHT22;47269;48.182;-1.946;2023-07-28T20:10:01;19.50;99.90
61400;DHT22;47269;48.182;-1.946;2023-07-28T20:12:27;19.40;99.90
61400;DHT22;47269;48.182;-1.946;2023-07-28T20:14:53;19.30;99.90
61400;DHT22;47269;48.182;-1.946;2023-07-28T20:17:23;19.30;99.90
61400;DHT22;47269;48.182;-1.946;2023-07-28T20:19:49;19.30;99.90
61400;DHT22;47269;48.182;-1.946;2023-07-28T20:22:15;19.20;99.90
61400;DHT22;47269;48.182;-1.946;2023-07-28T20:24:40;19.20;99.90
61400;DHT22;47269;48.182;-1.946;2023-07-28T20:27:06;19.10;99.90
61400;DHT22;47269;48.182;-1.946;2023-07-28T20:29:32;19.00;99.90
61400;DHT22;47269;48.182;-1.946;2023-07-28T20:31:58;19.00;99.90
61400;DHT22;47269;48.182;-1.946;2023-07-28T20:34:24;18.90;99.90
61400;DHT22;47269;48.182;-1.946;2023-07-28T20:36:52;18.90;99.90
61400;DHT22;47269;48.182;-1.946;2023-07-28T20:39:17;19.00;99.90
61400;DHT22;47269;48.182;-1.946;2023-07-28T20:41:43;18.90;99.90
61400;DHT22;47269;48.182;-1.946;2023-07-28T20:44:09;18.80;99.90
61400;DHT22;47269;48.182;-1.946;2023-07-28T20:46:35;18.80;99.90
61400;DHT22;47269;48.182;-1.946;2023-07-28T20:49:01;18.80;99.90
61400;DHT22;47269;48.182;-1.946;2023-07-28T20:51:27;18.80;99.90
61400;DHT22;47269;48.182;-1.946;2023-07-28T20:53:53;18.70;99.90
61400;DHT22;47269;48.182;-1.946;2023-07-28T20:56:18;18.70;99.90
61400;DHT22;47269;48.182;-1.946;2023-07-28T20:58:44;18.70;99.90
61400;DHT22;47269;48.182;-1.946;2023-07-28T21:01:10;18.60;99.90
61400;DHT22;47269;48.182;-1.946;2023-07-28T21:03:35;18.70;99.90
61400;DHT22;47269;48.182;-1.946;2023-07-28T21:06:01;18.60;99.90
61400;DHT22;47269;48.182;-1.946;2023-07-28T21:08:27;18.60;99.90
61400;DHT22;47269;48.182;-1.946;2023-07-28T21:10:53;18.50;99.90
61400;DHT22;47269;48.182;-1.946;2023-07-28T21:13:26;18.50;99.90
61400;DHT22;47269;48.182;-1.946;2023-07-28T21:15:52;18.40;99.90
61400;DHT22;47269;48.182;-1.946;2023-07-28T21:18:18;18.40;99.90
61400;DHT22;47269;48.182;-1.946;2023-07-28T21:20:46;18.40;99.90
61400;DHT22;47269;48.182;-1.946;2023-07-28T21:23:12;18.40;99.90
61400;DHT22;47269;48.182;-1.946;2023-07-28T21:25:38;18.40;99.90
61400;DHT22;47269;48.182;-1.946;2023-07-28T21:28:05;18.30;99.90